createdAt,value
2024-02-22T00:00:16.521Z,2.50
2024-02-22T00:03:20.578Z,2.70
2024-02-22T00:06:22.065Z,2.80
2024-02-22T00:09:23.713Z,2.63
2024-02-22T00:12:25.259Z,2.60
2024-02-22T00:15:27.192Z,2.60
2024-02-22T00:18:28.706Z,2.63
2024-02-22T00:21:30.193Z,2.40
2024-02-22T00:24:31.637Z,2.43
2024-02-22T00:27:34.790Z,2.40
2024-02-22T00:30:36.231Z,2.60
2024-02-22T00:33:37.757Z,2.60
2024-02-22T00:36:43.258Z,3.10
2024-02-22T00:39:47.643Z,2.40
2024-02-22T00:42:49.135Z,2.43
2024-02-22T00:45:51.896Z,2.57
2024-02-22T00:48:53.362Z,2.20
2024-02-22T00:51:54.888Z,2.43
2024-02-22T00:54:56.572Z,2.47
2024-02-22T00:57:58.016Z,2.20
2024-02-22T01:00:59.473Z,2.10
2024-02-22T01:04:01.017Z,2.13
2024-02-22T01:07:02.908Z,2.13
2024-02-22T01:10:06.560Z,2.20
2024-02-22T01:13:09.844Z,2.00
2024-02-22T01:16:11.292Z,1.83
2024-02-22T01:19:12.895Z,1.93
2024-02-22T01:22:14.646Z,2.10
2024-02-22T01:25:16.054Z,2.07
2024-02-22T01:28:17.478Z,1.90
2024-02-22T01:31:18.970Z,2.20
2024-02-22T01:34:21.929Z,2.47
2024-02-22T01:37:23.474Z,2.20
2024-02-22T01:40:24.931Z,2.10
2024-02-22T01:43:26.431Z,2.20
2024-02-22T01:46:28.076Z,2.00
2024-02-22T01:49:29.697Z,2.00
2024-02-22T01:52:31.281Z,2.20
2024-02-22T01:55:33.297Z,1.90
2024-02-22T01:58:37.534Z,2.33
2024-02-22T02:01:51.978Z,2.50
2024-02-22T02:04:53.626Z,2.20
2024-02-22T02:07:55.089Z,2.40
2024-02-22T02:10:56.652Z,2.10
2024-02-22T02:13:58.159Z,2.40
2024-02-22T02:16:59.712Z,2.37
2024-02-22T02:20:08.431Z,2.43
2024-02-22T02:23:45.014Z,2.20
2024-02-22T02:26:47.022Z,2.00
2024-02-22T02:29:48.531Z,2.20
2024-02-22T02:32:50.236Z,2.30
2024-02-22T02:35:53.254Z,2.73
2024-02-22T02:38:54.674Z,2.30
2024-02-22T02:41:56.228Z,2.30
2024-02-22T02:44:57.699Z,2.10
2024-02-22T02:47:59.238Z,2.10
2024-02-22T02:51:00.807Z,2.10
2024-02-22T02:54:02.283Z,2.10
2024-02-22T02:57:03.956Z,2.30
2024-02-22T03:00:10.621Z,2.10
2024-02-22T03:03:12.061Z,1.70
2024-02-22T03:06:13.611Z,1.87
2024-02-22T03:09:15.865Z,1.80
2024-02-22T03:12:17.341Z,1.70
2024-02-22T03:15:18.833Z,1.80
2024-02-22T03:18:20.361Z,1.60
2024-02-22T03:21:22.372Z,1.70
2024-02-22T03:24:23.771Z,1.77
2024-02-22T03:27:25.252Z,1.53
2024-02-22T03:30:27.384Z,1.60
2024-02-22T03:33:29.352Z,1.50
2024-02-22T03:36:31.232Z,1.40
2024-02-22T03:39:32.699Z,1.40
2024-02-22T03:42:34.915Z,1.30
2024-02-22T03:45:36.394Z,1.50
2024-02-22T03:48:37.946Z,1.40
2024-02-22T03:51:39.417Z,1.30
2024-02-22T03:54:41.340Z,1.27
2024-02-22T03:57:43.278Z,1.40
2024-02-22T04:00:44.860Z,1.30
2024-02-22T04:03:46.362Z,1.30
2024-02-22T04:06:48.291Z,1.20
2024-02-22T04:09:50.216Z,1.50
2024-02-22T04:12:51.659Z,1.40
2024-02-22T04:15:53.131Z,1.40
2024-02-22T04:18:54.738Z,1.10
2024-02-22T04:21:56.346Z,1.10
2024-02-22T04:24:57.783Z,1.43
2024-02-22T04:27:59.240Z,1.30
2024-02-22T04:31:05.074Z,1.53
2024-02-22T04:34:06.516Z,1.20
2024-02-22T04:37:07.987Z,1.10
2024-02-22T04:40:09.792Z,1.50
2024-02-22T04:43:11.262Z,1.17
2024-02-22T04:46:12.682Z,1.20
2024-02-22T04:49:14.269Z,1.00
2024-02-22T04:52:15.784Z,1.20
2024-02-22T04:55:18.602Z,1.10
2024-02-22T04:58:20.012Z,1.07
2024-02-22T05:01:21.780Z,1.13
2024-02-22T05:04:23.256Z,1.07
2024-02-22T05:07:24.695Z,1.10
2024-02-22T05:10:26.149Z,1.10
2024-02-22T05:13:27.606Z,1.30
2024-02-22T05:16:29.035Z,1.10
2024-02-22T05:19:30.544Z,1.30
2024-02-22T05:22:32.067Z,1.03
2024-02-22T05:25:35.010Z,1.20
2024-02-22T05:28:36.595Z,1.00
2024-02-22T05:31:38.081Z,1.17
2024-02-22T05:34:39.613Z,1.03
2024-02-22T05:37:41.234Z,1.30
2024-02-22T05:40:43.045Z,1.33
2024-02-22T05:43:44.781Z,1.20
2024-02-22T05:46:46.322Z,1.13
2024-02-22T05:49:47.845Z,1.10
2024-02-22T05:52:49.372Z,1.30
2024-02-22T05:55:50.978Z,1.30
2024-02-22T05:58:52.536Z,1.40
2024-02-22T06:01:54.217Z,1.40
2024-02-22T06:05:01.162Z,1.40
2024-02-22T06:08:02.765Z,1.30
2024-02-22T06:11:04.621Z,1.10
2024-02-22T06:14:06.227Z,1.33
2024-02-22T06:17:07.944Z,1.30
2024-02-22T06:20:10.433Z,1.30
2024-02-22T06:23:13.088Z,1.20
2024-02-22T06:26:15.263Z,1.53
2024-02-22T06:29:16.759Z,1.30
2024-02-22T06:32:18.362Z,1.20
2024-02-22T06:35:22.330Z,1.50
2024-02-22T06:38:24.982Z,1.23
2024-02-22T06:41:26.529Z,1.40
2024-02-22T06:44:28.070Z,1.20
2024-02-22T06:47:29.776Z,1.97
2024-02-22T06:50:31.707Z,1.20
2024-02-22T06:53:33.396Z,1.20
2024-02-22T06:56:35.105Z,1.67
2024-02-22T06:59:36.554Z,2.10
2024-02-22T07:02:38.554Z,1.53
2024-02-22T07:05:40.021Z,1.50
2024-02-22T07:08:41.633Z,1.20
2024-02-22T07:11:43.145Z,1.37
2024-02-22T07:14:44.697Z,1.27
2024-02-22T07:17:46.251Z,1.27
2024-02-22T07:20:47.858Z,1.30
2024-02-22T07:23:49.298Z,1.20
2024-02-22T07:26:50.770Z,1.00
2024-02-22T07:29:52.580Z,1.43
2024-02-22T07:32:54.227Z,1.20
2024-02-22T07:35:55.735Z,1.30
2024-02-22T07:38:58.439Z,1.40
2024-02-22T07:41:59.872Z,0.80
2024-02-22T07:45:02.070Z,1.07
2024-02-22T07:48:09.510Z,1.10
2024-02-22T07:51:11.739Z,1.20
2024-02-22T07:54:13.165Z,1.07
2024-02-22T07:57:14.716Z,1.10
2024-02-22T08:00:18.477Z,0.93
2024-02-22T08:03:19.921Z,0.90
2024-02-22T08:06:21.461Z,0.80
2024-02-22T08:09:23.313Z,0.80
2024-02-22T08:12:24.801Z,0.87
2024-02-22T08:15:26.377Z,0.80
2024-02-22T08:18:27.827Z,0.70
2024-02-22T08:21:29.342Z,0.80
2024-02-22T08:24:30.785Z,0.80
2024-02-22T08:27:32.268Z,0.80
2024-02-22T08:30:33.778Z,0.60
2024-02-22T08:33:35.305Z,0.80
2024-02-22T08:36:36.775Z,0.67
2024-02-22T08:39:38.259Z,0.60
2024-02-22T08:42:39.843Z,0.50
2024-02-22T08:45:41.529Z,0.50
2024-02-22T08:48:43.174Z,0.60
2024-02-22T08:51:44.650Z,0.63
2024-02-22T08:54:46.186Z,0.60
2024-02-22T08:57:52.521Z,0.67
2024-02-22T09:00:55.641Z,0.80
2024-02-22T09:03:57.135Z,0.80
2024-02-22T09:06:59.220Z,0.80
2024-02-22T09:10:01.869Z,0.90
2024-02-22T09:13:03.460Z,0.80
2024-02-22T09:16:05.258Z,0.70
2024-02-22T09:19:06.721Z,0.70
2024-02-22T09:22:08.289Z,0.70
2024-02-22T09:25:12.085Z,0.77
2024-02-22T09:28:14.162Z,0.60
2024-02-22T09:31:17.842Z,0.60
2024-02-22T09:34:19.301Z,0.50
2024-02-22T09:37:21.974Z,0.50
2024-02-22T09:40:24.809Z,0.60
2024-02-22T09:43:26.264Z,0.53
2024-02-22T09:46:27.924Z,0.50
2024-02-22T09:49:29.516Z,0.50
2024-02-22T09:52:30.985Z,0.50
2024-02-22T09:55:32.523Z,0.60
2024-02-22T09:58:34.033Z,0.53
2024-02-22T10:01:35.623Z,0.70
2024-02-22T10:04:37.215Z,0.50
2024-02-22T10:07:40.947Z,0.60
2024-02-22T10:10:42.787Z,0.40
2024-02-22T10:13:44.738Z,0.60
2024-02-22T10:16:47.070Z,0.57
2024-02-22T10:20:15.142Z,0.53
2024-02-22T10:23:18.252Z,0.40
2024-02-22T10:26:19.801Z,0.40
2024-02-22T10:29:22.108Z,0.50
2024-02-22T10:32:23.740Z,0.50
2024-02-22T10:35:25.473Z,0.30
2024-02-22T10:38:30.058Z,0.47
2024-02-22T10:41:31.635Z,0.50
2024-02-22T10:44:33.222Z,0.40
2024-02-22T10:47:36.215Z,0.50
2024-02-22T10:50:39.038Z,0.40
2024-02-22T10:53:43.326Z,0.40
2024-02-22T10:56:49.505Z,0.40
2024-02-22T10:59:55.436Z,0.40
2024-02-22T11:02:57.235Z,0.83
2024-02-22T11:06:01.034Z,0.43
2024-02-22T11:09:02.846Z,0.40
2024-02-22T11:12:06.496Z,0.40
2024-02-22T11:15:08.847Z,0.67
2024-02-22T11:18:10.406Z,0.43
2024-02-22T11:21:13.422Z,0.40
2024-02-22T11:24:15.601Z,0.60
2024-02-22T11:27:18.703Z,0.40
2024-02-22T11:30:20.733Z,0.40
2024-02-22T11:33:23.650Z,0.50
2024-02-22T11:36:26.279Z,0.50
2024-02-22T11:39:28.358Z,0.47
2024-02-22T11:42:30.769Z,0.50
2024-02-22T11:45:33.076Z,0.40
2024-02-22T11:48:35.074Z,0.40
2024-02-22T11:51:37.847Z,0.50
2024-02-22T11:54:41.197Z,0.40
2024-02-22T11:57:43.248Z,0.60
2024-02-22T12:00:45.618Z,0.50
2024-02-22T12:03:48.224Z,0.60
2024-02-22T12:06:50.316Z,0.40
2024-02-22T12:09:51.859Z,0.50
2024-02-22T12:12:53.665Z,0.50
2024-02-22T12:16:07.900Z,0.30
2024-02-22T12:19:09.827Z,0.50
2024-02-22T12:22:11.325Z,0.53
2024-02-22T12:25:13.010Z,0.50
2024-02-22T12:28:14.473Z,0.50
2024-02-22T12:31:18.085Z,0.60
2024-02-22T12:34:19.892Z,0.50
2024-02-22T12:37:21.635Z,0.40
2024-02-22T12:40:23.097Z,0.60
2024-02-22T12:43:24.595Z,0.67
2024-02-22T12:46:28.652Z,0.60
2024-02-22T12:49:32.193Z,0.60
2024-02-22T12:52:33.753Z,0.60
2024-02-22T12:55:35.294Z,0.67
2024-02-22T12:58:36.868Z,0.63
2024-02-22T13:01:38.705Z,0.60
2024-02-22T13:04:40.386Z,0.70
2024-02-22T13:07:42.090Z,0.70
2024-02-22T13:10:43.827Z,0.90
2024-02-22T13:13:45.527Z,0.70
2024-02-22T13:16:47.111Z,0.73
2024-02-22T13:19:48.599Z,0.73
2024-02-22T13:22:50.056Z,0.90
2024-02-22T13:25:52.208Z,1.00
2024-02-22T13:28:53.877Z,0.90
2024-02-22T13:31:58.703Z,0.80
2024-02-22T13:35:00.540Z,1.00
2024-02-22T13:38:02.112Z,1.00
2024-02-22T13:41:04.524Z,1.50
2024-02-22T13:44:13.750Z,0.90
2024-02-22T13:47:19.229Z,0.97
2024-02-22T13:50:20.819Z,0.90
2024-02-22T13:53:22.962Z,0.90
2024-02-22T13:56:24.681Z,0.80
2024-02-22T13:59:26.435Z,1.00
2024-02-22T14:02:27.988Z,0.83
2024-02-22T14:05:31.520Z,1.13
2024-02-22T14:08:33.572Z,0.90
2024-02-22T14:11:35.044Z,1.00
2024-02-22T14:14:36.554Z,1.10
2024-02-22T14:20:43.392Z,1.00
2024-02-22T14:23:46.934Z,0.97
2024-02-22T14:26:50.692Z,1.00
2024-02-22T14:29:53.390Z,1.10
2024-02-22T14:32:54.889Z,0.77
2024-02-22T14:35:56.948Z,1.00
2024-02-22T14:38:58.963Z,0.90
2024-02-22T14:42:00.756Z,0.90
2024-02-22T14:45:02.559Z,0.80
2024-02-22T14:48:05.288Z,0.80
2024-02-22T14:51:08.504Z,0.90
2024-02-22T14:54:10.344Z,0.90
2024-02-22T14:57:12.002Z,0.70
2024-02-22T15:00:16.029Z,0.80
2024-02-22T15:03:17.734Z,0.77
2024-02-22T15:06:19.513Z,0.80
2024-02-22T15:09:21.134Z,0.90
2024-02-22T15:12:22.778Z,0.90
2024-02-22T15:15:24.201Z,0.70
2024-02-22T15:18:25.784Z,0.90
2024-02-22T15:21:27.473Z,0.80
2024-02-22T15:24:28.957Z,1.00
2024-02-22T15:27:31.181Z,0.70
2024-02-22T15:30:32.624Z,1.03
2024-02-22T15:33:34.278Z,0.80
2024-02-22T15:36:36.008Z,1.03
2024-02-22T15:39:42.436Z,1.00
2024-02-22T15:42:45.954Z,1.00
2024-02-22T15:45:47.467Z,0.90
2024-02-22T15:48:49.692Z,1.33
2024-02-22T15:51:54.436Z,0.90
2024-02-22T15:54:55.994Z,1.13
2024-02-22T15:57:58.577Z,0.97
2024-02-22T16:01:02.027Z,1.03
2024-02-22T16:04:04.803Z,1.20
2024-02-22T16:07:06.622Z,1.20
2024-02-22T16:10:09.739Z,1.10
2024-02-22T16:13:14.233Z,1.30
2024-02-22T16:16:17.971Z,2.37
2024-02-22T16:19:19.586Z,2.67
2024-02-22T16:22:21.220Z,2.17
2024-02-22T16:25:22.764Z,2.37
2024-02-22T16:28:29.552Z,3.40
2024-02-22T16:31:31.126Z,4.57
2024-02-22T16:34:32.956Z,1.73
2024-02-22T16:37:34.898Z,4.70
2024-02-22T16:40:37.423Z,1.60
2024-02-22T16:43:38.958Z,1.20
2024-02-22T16:46:41.830Z,1.00
2024-02-22T16:49:43.644Z,1.30
2024-02-22T16:52:45.418Z,1.07
2024-02-22T16:55:47.061Z,1.10
2024-02-22T16:58:48.623Z,1.50
2024-02-22T17:01:50.212Z,1.40
2024-02-22T17:04:51.700Z,1.57
2024-02-22T17:07:53.176Z,1.40
2024-02-22T17:10:54.839Z,1.33
2024-02-22T17:13:56.508Z,1.60
2024-02-22T17:16:59.203Z,1.50
2024-02-22T17:20:00.980Z,1.60
2024-02-22T17:23:02.711Z,1.40
2024-02-22T17:26:04.709Z,1.23
2024-02-22T17:29:06.567Z,1.33
2024-02-22T17:32:08.337Z,1.20
2024-02-22T17:35:10.111Z,1.30
2024-02-22T17:38:11.882Z,1.40
2024-02-22T17:41:13.444Z,1.10
2024-02-22T17:44:15.575Z,1.23
2024-02-22T17:47:19.000Z,1.40
2024-02-22T17:50:20.818Z,1.40
2024-02-22T17:53:22.482Z,1.60
2024-02-22T17:56:27.032Z,1.40
2024-02-22T17:59:28.738Z,1.53
2024-02-22T18:02:31.283Z,1.80
2024-02-22T18:05:33.609Z,1.40
2024-02-22T18:08:37.844Z,1.20
2024-02-22T18:11:39.977Z,1.77
2024-02-22T18:14:42.406Z,1.43
2024-02-22T18:17:44.017Z,1.87
2024-02-22T18:20:45.791Z,1.73
2024-02-22T18:23:47.303Z,1.80
2024-02-22T18:26:48.837Z,1.80
2024-02-22T18:29:50.397Z,1.50
2024-02-22T18:32:54.094Z,1.40
2024-02-22T18:35:55.680Z,1.53
2024-02-22T18:38:57.200Z,1.20
2024-02-22T18:41:58.997Z,1.03
2024-02-22T18:45:02.657Z,1.10
2024-02-22T18:48:07.174Z,1.00
2024-02-22T18:51:08.814Z,1.00
2024-02-22T18:54:10.252Z,1.00
2024-02-22T18:57:11.668Z,0.90
2024-02-22T19:00:13.407Z,1.20
2024-02-22T19:03:17.090Z,1.00
2024-02-22T19:06:18.740Z,1.20
2024-02-22T19:09:20.274Z,1.30
2024-02-22T19:12:21.802Z,1.10
2024-02-22T19:15:23.375Z,0.90
2024-02-22T19:18:24.938Z,1.07
2024-02-22T19:21:26.701Z,0.60
2024-02-22T19:24:29.958Z,1.20
2024-02-22T19:27:33.347Z,1.10
2024-02-22T19:30:34.949Z,0.77
2024-02-22T19:33:36.409Z,1.00
2024-02-22T19:36:45.177Z,1.07
2024-02-22T19:39:54.854Z,0.83
2024-02-22T19:42:56.368Z,0.80
2024-02-22T19:45:57.800Z,0.80
2024-02-22T19:48:59.464Z,0.70
2024-02-22T19:52:00.926Z,1.00
2024-02-22T19:55:04.153Z,1.00
2024-02-22T19:58:05.750Z,0.77
2024-02-22T20:01:07.207Z,0.80
2024-02-22T20:04:08.804Z,0.80
2024-02-22T20:07:10.285Z,0.90
2024-02-22T20:10:11.785Z,0.60
2024-02-22T20:13:15.714Z,0.70
2024-02-22T20:16:17.189Z,0.70
2024-02-22T20:19:18.894Z,0.90
2024-02-22T20:22:20.588Z,0.90
2024-02-22T20:25:22.079Z,1.17
2024-02-22T20:28:25.856Z,1.00
2024-02-22T20:31:28.042Z,0.90
2024-02-22T20:34:29.794Z,0.80
2024-02-22T20:37:31.546Z,1.10
2024-02-22T20:40:33.967Z,0.80
2024-02-22T20:43:36.040Z,0.90
2024-02-22T20:46:37.527Z,0.87
2024-02-22T20:49:39.493Z,0.80
2024-02-22T20:52:41.572Z,0.57
2024-02-22T20:55:43.152Z,0.93
2024-02-22T20:58:45.757Z,0.80
2024-02-22T21:01:49.569Z,0.70
2024-02-22T21:04:51.084Z,0.70
2024-02-22T21:07:52.757Z,0.80
2024-02-22T21:10:58.608Z,0.70
2024-02-22T21:14:00.396Z,0.70
2024-02-22T21:17:01.952Z,0.70
2024-02-22T21:20:06.120Z,0.60
2024-02-22T21:23:07.796Z,0.80
2024-02-22T21:26:09.287Z,0.67
2024-02-22T21:29:10.974Z,0.70
2024-02-22T21:32:12.494Z,0.50
2024-02-22T21:35:14.129Z,0.80
2024-02-22T21:38:15.713Z,0.60
2024-02-22T21:41:17.154Z,0.60
2024-02-22T21:44:18.673Z,0.40
2024-02-22T21:47:20.498Z,0.50
2024-02-22T21:50:22.124Z,0.50
2024-02-22T21:53:23.785Z,0.53
2024-02-22T21:56:25.430Z,0.43
2024-02-22T21:59:26.973Z,0.60
2024-02-22T22:02:28.567Z,0.43
2024-02-22T22:05:32.190Z,0.40
2024-02-22T22:08:35.427Z,0.40
2024-02-22T22:11:38.095Z,0.50
2024-02-22T22:14:39.697Z,0.43
2024-02-22T22:17:41.322Z,0.63
2024-02-22T22:20:45.444Z,0.30
2024-02-22T22:23:47.108Z,1.10
2024-02-22T22:26:48.528Z,0.47
2024-02-22T22:29:50.054Z,0.50
2024-02-22T22:32:51.598Z,0.50
2024-02-22T22:35:53.114Z,0.50
2024-02-22T22:38:54.554Z,0.60
2024-02-22T22:41:57.951Z,0.40
2024-02-22T22:44:59.467Z,0.60
2024-02-22T22:48:00.962Z,0.40
2024-02-22T22:51:02.534Z,0.50
2024-02-22T22:54:04.360Z,0.57
2024-02-22T22:57:05.819Z,0.47
2024-02-22T23:00:14.870Z,0.40
2024-02-22T23:03:17.052Z,0.47
2024-02-22T23:06:18.909Z,0.57
2024-02-22T23:09:22.412Z,0.60
2024-02-22T23:12:24.261Z,0.60
2024-02-22T23:15:26.103Z,0.60
2024-02-22T23:18:27.686Z,0.40
2024-02-22T23:21:36.479Z,0.80
2024-02-22T23:24:38.048Z,0.50
2024-02-22T23:27:39.531Z,0.60
2024-02-22T23:30:41.057Z,0.60
2024-02-22T23:33:42.526Z,0.60
2024-02-22T23:36:44.263Z,0.60
2024-02-22T23:39:46.084Z,0.60
2024-02-22T23:42:47.514Z,0.50
2024-02-22T23:45:49.018Z,0.60
2024-02-22T23:48:50.595Z,0.60
2024-02-22T23:51:52.148Z,0.47
2024-02-22T23:54:53.600Z,0.40
2024-02-22T23:57:55.049Z,0.50
